createdAt,value
2017-07-24T21:19:16.447Z,1.80
2017-07-24T21:21:43.954Z,1.60
2017-07-24T21:24:11.587Z,1.90
2017-07-24T21:26:39.126Z,2.45
2017-07-24T21:29:06.675Z,1.90
2017-07-24T21:31:34.945Z,2.25
2017-07-24T21:34:02.731Z,1.55
2017-07-24T21:36:30.274Z,1.80
2017-07-24T21:38:58.580Z,1.65
2017-07-24T21:41:26.078Z,1.83
2017-07-24T21:43:53.583Z,1.70
2017-07-24T21:46:21.249Z,1.50
2017-07-24T21:48:48.787Z,1.40
2017-07-24T21:51:17.361Z,1.70
2017-07-24T21:53:44.867Z,1.90
2017-07-24T21:56:12.381Z,2.20
2017-07-24T21:58:40.660Z,2.25
2017-07-24T22:01:08.163Z,2.70
2017-07-24T22:03:35.709Z,2.60
2017-07-24T22:06:03.212Z,2.70
2017-07-24T22:08:30.772Z,3.10
2017-07-24T22:10:58.282Z,2.95
2017-07-24T22:13:26.241Z,3.00
2017-07-24T22:15:53.784Z,2.65
2017-07-24T22:18:21.320Z,3.30
2017-07-24T22:20:48.834Z,2.53
2017-07-24T22:23:16.336Z,3.58
2017-07-24T22:25:43.942Z,2.90
2017-07-24T22:28:15.998Z,3.30
2017-07-24T22:30:46.527Z,3.55
2017-07-24T22:33:14.293Z,2.80
2017-07-24T22:35:41.829Z,3.30
2017-07-24T22:38:10.148Z,3.45
2017-07-24T22:40:37.644Z,3.45
2017-07-24T22:43:05.144Z,3.75
2017-07-24T22:45:36.555Z,3.33
2017-07-24T22:48:04.056Z,3.55
2017-07-24T22:50:31.555Z,4.57
2017-07-24T22:52:59.167Z,3.85
2017-07-24T22:55:26.668Z,3.83
2017-07-24T22:57:54.169Z,3.70
2017-07-24T23:00:22.478Z,3.47
2017-07-24T23:02:50.014Z,4.10
2017-07-24T23:05:17.694Z,3.67
2017-07-24T23:07:45.191Z,3.40
2017-07-24T23:10:12.920Z,4.80
2017-07-24T23:12:40.414Z,4.35
2017-07-24T23:15:08.115Z,4.50
2017-07-24T23:17:39.281Z,4.35
2017-07-24T23:20:07.031Z,4.62
2017-07-24T23:22:34.556Z,4.75
2017-07-24T23:25:02.832Z,4.55
2017-07-24T23:27:30.393Z,4.90
2017-07-24T23:29:58.707Z,4.65
2017-07-24T23:32:26.467Z,5.03
2017-07-24T23:34:57.695Z,7.30
2017-07-24T23:37:25.232Z,4.65
2017-07-24T23:39:52.723Z,4.25
2017-07-24T23:42:20.247Z,5.05
2017-07-24T23:44:51.756Z,5.37
2017-07-24T23:47:19.255Z,5.57
2017-07-24T23:49:46.848Z,5.93
2017-07-24T23:52:14.351Z,6.12
2017-07-24T23:54:41.855Z,5.65
2017-07-24T23:57:09.396Z,6.10
2017-07-24T23:59:36.894Z,6.57
